Skip Navigation Links Skip Navigation Links

Current Weather

Fairford RAFB, Fairford, United Kingdom

For information only: do not use for flight planning or navigation.
Latest weather
Observation time Wednesday, November 25, 2020 12:56 AM GMT
Local time Wednesday, November 25, 2020 1:52 AM GMT
Flight conditions Marginal Visual Meteorological Conditions
Winds
Wind direction South (170°)
Wind speed 6 mph
Visibility 6.2 mi.
Sky condition
Ceiling 1,200 ft. broken clouds
Cloud layer broken clouds 1,200 ft.
Temperature 51°F
Dewpoint 50°F
Altimeter 29.78 in.Hg
Derived measurements
Relative humidity 97%
Density altitude -214 ft.
Sea-level pressure 29.79 in.Hg
Remarks
Fully automated report.
Automated weather observing station with precipitation discriminator.
METAR EGVA 250056Z AUTO 17005KT 9999 BKN012 10/10 A2978 RMK AO2 SLP088 T01040099

Settings

Location code

InnerDrive.Weather 4.0.6770.0 Release CLR 4.0.30319.42000
Copyright ©2018 Inner Drive Technology. All rights reserved. Portions Copyright ©1986-2018 David Braverman.

Find weather

Site navigation


Skip Navigation Links

Place info

Page info

PayPal - The safer, easier way to pay online!

Return home.

Copyright ©2020 Inner Drive Technology. Purveyors of fine, hand-crafted computer software. Page printed 2020-11-25T01:52:14 UTC.